Vicentina, Brazil
Current Conditions -  °F | °C
As of 2:00 AM on Saturday 29 Nov 2014 (Local Time) from SBCG Reporting Station
Few Clouds Few Clouds  
Wind Chill: 72°   Ceiling: Unl
Heat Index: 72°   Visibility: 6mi
Dew Point: 68°   Wind: 7mph
Humidity: 88%   Direction: 80°E
Pressure: 29.88"   Gusts: NA
Location:  22.41°S, 54.44°W
Report Text: SBCG 290500Z 08006KT 9999 FEW030 22/20 Q1012
Loading
Personal Weather Stations






























Interactive Weather Map New forecast layout! Learn more

10-Day Weather Forecast

Advertisements
Track Severe Weather on mobile